createdAt,value
2022-10-12T00:00:59.766Z,8.29
2022-10-12T00:03:34.000Z,8.26
2022-10-12T00:06:09.774Z,8.23
2022-10-12T00:08:44.110Z,8.20
2022-10-12T00:11:20.873Z,8.15
2022-10-12T00:13:56.775Z,8.12
2022-10-12T00:16:32.046Z,8.07
2022-10-12T00:19:05.609Z,8.02
2022-10-12T00:21:40.508Z,7.96
2022-10-12T00:24:14.034Z,7.92
2022-10-12T00:26:50.358Z,7.89
2022-10-12T00:29:25.564Z,7.85
2022-10-12T00:31:59.003Z,7.83
2022-10-12T00:34:32.496Z,7.82
2022-10-12T00:37:06.156Z,7.78
2022-10-12T00:39:39.805Z,7.73
2022-10-12T00:42:13.893Z,7.68
2022-10-12T00:44:50.857Z,7.63
2022-10-12T00:47:29.276Z,7.59
2022-10-12T00:50:09.976Z,7.56
2022-10-12T00:52:48.353Z,7.52
2022-10-12T00:55:24.580Z,7.46
2022-10-12T00:57:58.635Z,7.42
2022-10-12T01:00:33.669Z,7.39
2022-10-12T01:03:09.380Z,7.35
2022-10-12T01:05:43.130Z,7.33
2022-10-12T01:08:16.616Z,7.28
2022-10-12T01:10:50.154Z,7.24
2022-10-12T01:13:23.674Z,7.21
2022-10-12T01:16:04.701Z,7.21
2022-10-12T01:18:46.191Z,7.17
2022-10-12T01:21:21.684Z,7.15
2022-10-12T01:24:27.745Z,7.16
2022-10-12T01:27:17.521Z,7.09
2022-10-12T01:30:33.448Z,7.07
2022-10-12T01:33:19.155Z,7.02
2022-10-12T01:35:59.817Z,7.00
2022-10-12T01:38:49.876Z,7.02
2022-10-12T01:41:29.261Z,6.98
2022-10-12T01:44:02.826Z,6.91
2022-10-12T01:46:47.578Z,6.90
2022-10-12T01:49:24.507Z,6.84
2022-10-12T01:52:26.929Z,6.85
2022-10-12T01:55:13.781Z,6.83
2022-10-12T01:57:58.695Z,6.81
2022-10-12T02:00:39.745Z,6.79
2022-10-12T02:03:21.742Z,6.78
2022-10-12T02:06:02.105Z,6.76
2022-10-12T02:08:40.270Z,6.73
2022-10-12T02:11:16.131Z,6.73
2022-10-12T02:13:55.058Z,6.73
2022-10-12T02:16:35.005Z,6.71
2022-10-12T02:19:15.065Z,6.71
2022-10-12T02:21:57.863Z,6.71
2022-10-12T02:24:33.134Z,6.69
2022-10-12T02:27:08.683Z,6.69
2022-10-12T02:29:44.635Z,6.67
2022-10-12T02:32:23.425Z,6.67
2022-10-12T02:35:04.836Z,6.64
2022-10-12T02:37:42.265Z,6.63
2022-10-12T02:40:21.039Z,6.60
2022-10-12T02:43:09.722Z,6.58
2022-10-12T02:45:47.923Z,6.55
2022-10-12T02:48:24.888Z,6.52
2022-10-12T02:51:01.825Z,6.49
2022-10-12T02:53:36.104Z,6.48
2022-10-12T02:56:13.510Z,6.48
2022-10-12T02:58:48.965Z,6.47
2022-10-12T03:01:22.647Z,6.46
2022-10-12T03:03:56.298Z,6.45
2022-10-12T03:06:31.336Z,6.45
2022-10-12T03:09:05.744Z,6.42
2022-10-12T03:11:43.926Z,6.40
2022-10-12T03:14:18.294Z,6.40
2022-10-12T03:16:51.919Z,6.39
2022-10-12T03:19:25.617Z,6.36
2022-10-12T03:22:00.616Z,6.37
2022-10-12T03:24:34.324Z,6.35
2022-10-12T03:27:07.983Z,6.34
2022-10-12T03:29:41.584Z,6.31
2022-10-12T03:32:16.238Z,6.30
2022-10-12T03:34:49.975Z,6.26
2022-10-12T03:37:25.000Z,6.24
2022-10-12T03:39:58.594Z,6.22
2022-10-12T03:42:32.168Z,6.20
2022-10-12T03:45:06.402Z,6.18
2022-10-12T03:47:40.351Z,6.15
2022-10-12T03:50:14.246Z,6.14
2022-10-12T03:52:49.326Z,6.14
2022-10-12T03:55:23.846Z,6.15
2022-10-12T03:57:57.400Z,6.12
2022-10-12T04:00:31.009Z,6.12
2022-10-12T04:03:04.733Z,6.09
2022-10-12T04:05:39.255Z,6.07
2022-10-12T04:08:14.324Z,6.05
2022-10-12T04:10:47.975Z,6.03
2022-10-12T04:13:21.818Z,6.02
2022-10-12T04:15:55.788Z,5.99
2022-10-12T04:18:29.011Z,6.08
2022-10-12T04:21:03.085Z,5.95
2022-10-12T04:23:38.086Z,5.90
2022-10-12T04:26:11.755Z,5.88
2022-10-12T04:28:45.470Z,5.87
2022-10-12T04:31:19.211Z,5.85
2022-10-12T04:33:57.061Z,5.85
2022-10-12T04:36:30.805Z,5.83
2022-10-12T04:39:05.968Z,5.82
2022-10-12T04:41:39.874Z,5.82
2022-10-12T04:44:13.195Z,5.91
2022-10-12T04:46:46.807Z,5.80
2022-10-12T04:49:20.337Z,5.79
2022-10-12T04:51:53.972Z,5.78
2022-10-12T04:54:28.924Z,5.78
2022-10-12T04:57:02.793Z,5.78
2022-10-12T04:59:36.060Z,5.89
2022-10-12T05:02:09.862Z,5.80
2022-10-12T05:04:43.276Z,5.91
2022-10-12T05:07:17.125Z,5.78
2022-10-12T05:09:52.157Z,5.75
2022-10-12T05:12:25.787Z,5.74
2022-10-12T05:14:59.285Z,5.73
2022-10-12T05:17:32.857Z,5.74
2022-10-12T05:20:07.434Z,5.75
2022-10-12T05:22:41.205Z,5.75
2022-10-12T05:25:16.375Z,5.75
2022-10-12T05:27:50.075Z,5.75
2022-10-12T05:30:23.692Z,5.76
2022-10-12T05:32:57.485Z,5.79
2022-10-12T05:35:31.140Z,5.83
2022-10-12T05:38:04.751Z,5.86
2022-10-12T05:40:39.750Z,5.90
2022-10-12T05:43:13.384Z,5.94
2022-10-12T05:45:47.188Z,5.98
2022-10-12T05:48:20.893Z,6.05
2022-10-12T05:50:55.080Z,6.12
2022-10-12T05:53:28.711Z,6.21
2022-10-12T05:56:04.035Z,6.32
2022-10-12T05:58:37.646Z,6.44
2022-10-12T06:01:13.517Z,6.55
2022-10-12T06:03:47.176Z,6.69
2022-10-12T06:06:20.799Z,6.83
2022-10-12T06:08:54.529Z,6.97
2022-10-12T06:11:31.546Z,7.11
2022-10-12T06:14:09.172Z,7.25
2022-10-12T06:16:44.915Z,7.40
2022-10-12T06:19:18.641Z,7.57
2022-10-12T06:21:52.343Z,7.75
2022-10-12T06:24:26.086Z,7.91
2022-10-12T06:27:01.082Z,8.05
2022-10-12T06:29:36.054Z,8.19
2022-10-12T06:32:09.857Z,8.37
2022-10-12T06:34:43.204Z,8.67
2022-10-12T06:37:44.321Z,8.79
2022-10-12T06:40:11.445Z,9.05
2022-10-12T06:42:46.774Z,9.28
2022-10-12T06:45:20.831Z,9.52
2022-10-12T06:47:54.452Z,9.78
2022-10-12T06:50:28.365Z,10.03
2022-10-12T06:53:02.017Z,10.26
2022-10-12T06:55:35.696Z,10.56
2022-10-12T06:58:10.859Z,10.81
2022-10-12T07:00:44.497Z,11.12
2022-10-12T07:03:18.270Z,11.42
2022-10-12T07:05:51.920Z,11.84
2022-10-12T07:08:28.516Z,12.05
2022-10-12T07:11:02.845Z,12.37
2022-10-12T07:13:38.148Z,12.71
2022-10-12T07:16:11.699Z,13.07
2022-10-12T07:18:45.380Z,13.46
2022-10-12T07:21:18.659Z,13.98
2022-10-12T07:23:52.293Z,14.36
2022-10-12T07:26:25.885Z,14.83
2022-10-12T07:29:02.368Z,15.29
2022-10-12T07:31:36.227Z,15.78
2022-10-12T07:34:10.337Z,16.30
2022-10-12T07:36:58.711Z,16.91
2022-10-12T07:39:32.969Z,17.69
2022-10-12T07:42:06.272Z,18.69
2022-10-12T07:44:41.323Z,19.46
2022-10-12T07:47:18.565Z,20.32
2022-10-12T07:49:52.411Z,21.18
2022-10-12T07:52:27.642Z,22.18
2022-10-12T07:55:01.218Z,22.85
2022-10-12T07:57:35.302Z,23.60
2022-10-12T08:00:11.649Z,24.42
2022-10-12T08:02:45.255Z,25.25
2022-10-12T08:05:22.797Z,26.07
2022-10-12T08:07:56.532Z,26.89
2022-10-12T08:10:30.504Z,27.67
2022-10-12T08:13:04.453Z,28.39
2022-10-12T08:15:41.189Z,29.07
2022-10-12T08:18:14.789Z,29.76
2022-10-12T08:20:48.457Z,30.44
2022-10-12T08:23:23.809Z,31.10
2022-10-12T08:25:59.161Z,31.75
2022-10-12T08:28:33.281Z,32.25
2022-10-12T08:31:14.349Z,32.74
2022-10-12T08:33:48.104Z,33.21
2022-10-12T08:36:21.803Z,33.72
2022-10-12T08:38:56.599Z,34.16
2022-10-12T08:41:53.802Z,34.67
2022-10-12T08:44:53.921Z,35.06
2022-10-12T08:47:39.465Z,35.54
2022-10-12T08:50:19.685Z,35.75
2022-10-12T08:52:56.925Z,35.95
2022-10-12T08:55:37.552Z,36.18
2022-10-12T08:58:18.671Z,36.64
2022-10-12T09:00:55.359Z,37.01
2022-10-12T09:03:41.570Z,37.33
2022-10-12T09:06:19.925Z,37.69
2022-10-12T09:09:04.330Z,38.20
2022-10-12T09:11:51.741Z,38.52
2022-10-12T09:14:29.650Z,38.61
2022-10-12T09:17:06.699Z,38.51
2022-10-12T09:19:44.239Z,38.57
2022-10-12T09:22:20.896Z,38.69
2022-10-12T09:24:54.622Z,38.85
2022-10-12T09:27:32.479Z,38.99
2022-10-12T09:30:06.872Z,39.10
2022-10-12T09:32:53.335Z,39.28
2022-10-12T09:35:29.237Z,39.51
2022-10-12T09:38:03.484Z,39.75
2022-10-12T09:40:37.041Z,39.93
2022-10-12T09:43:11.593Z,40.22
2022-10-12T09:45:45.523Z,40.46
2022-10-12T09:48:22.198Z,40.60
2022-10-12T09:51:02.247Z,40.82
2022-10-12T09:53:37.466Z,41.03
2022-10-12T09:56:16.769Z,41.24
2022-10-12T09:58:54.606Z,41.13
2022-10-12T10:01:30.615Z,41.15
2022-10-12T10:04:15.618Z,41.24
2022-10-12T10:06:52.628Z,40.95
2022-10-12T10:09:33.001Z,41.14
2022-10-12T10:12:24.375Z,41.34
2022-10-12T10:15:05.322Z,41.63
2022-10-12T10:17:41.772Z,41.77
2022-10-12T10:20:30.086Z,41.83
2022-10-12T10:23:06.349Z,42.04
2022-10-12T10:25:41.011Z,42.15
2022-10-12T10:28:24.624Z,42.10
2022-10-12T10:31:02.619Z,41.72
2022-10-12T10:33:40.296Z,41.58
2022-10-12T10:36:28.939Z,41.81
2022-10-12T10:39:11.662Z,42.14
2022-10-12T10:41:50.052Z,42.51
2022-10-12T10:44:32.318Z,41.75
2022-10-12T10:47:11.773Z,41.36
2022-10-12T10:49:49.667Z,41.69
2022-10-12T10:52:27.016Z,40.24
2022-10-12T10:55:22.125Z,38.25
2022-10-12T10:58:03.493Z,36.45
2022-10-12T11:00:40.915Z,36.81
2022-10-12T11:03:22.230Z,36.21
2022-10-12T11:06:00.305Z,34.45
2022-10-12T11:08:39.130Z,32.73
2022-10-12T11:11:17.823Z,31.84
2022-10-12T11:13:59.370Z,32.36
2022-10-12T11:16:38.026Z,33.41
2022-10-12T11:19:25.510Z,33.78
2022-10-12T11:22:04.317Z,34.15
2022-10-12T11:24:44.990Z,35.05
2022-10-12T11:27:29.046Z,36.35
2022-10-12T11:30:14.747Z,37.78
2022-10-12T11:32:52.070Z,38.73
2022-10-12T11:35:30.381Z,37.86
2022-10-12T11:38:09.591Z,36.36
2022-10-12T11:41:31.017Z,35.50
2022-10-12T11:43:53.719Z,35.89
2022-10-12T11:46:34.989Z,36.51
2022-10-12T11:49:14.493Z,37.21
2022-10-12T11:51:50.387Z,38.03
2022-10-12T11:54:32.592Z,38.44
2022-10-12T11:57:11.884Z,39.03
2022-10-12T11:59:53.582Z,38.37
2022-10-12T12:02:31.357Z,36.82
2022-10-12T12:05:15.456Z,34.97
2022-10-12T12:07:51.573Z,33.08
2022-10-12T12:11:01.671Z,31.35
2022-10-12T12:13:35.355Z,30.08
2022-10-12T12:16:36.566Z,28.91
2022-10-12T12:19:37.957Z,27.82
2022-10-12T12:22:34.938Z,26.84
2022-10-12T12:25:29.012Z,26.28
2022-10-12T12:28:20.155Z,27.65
2022-10-12T12:30:59.409Z,29.38
2022-10-12T12:33:38.570Z,31.06
2022-10-12T12:36:15.711Z,32.65
2022-10-12T12:38:52.591Z,34.13
2022-10-12T12:41:30.172Z,35.29
2022-10-12T12:44:06.316Z,36.07
2022-10-12T12:50:37.311Z,33.78
2022-10-12T12:53:18.464Z,32.41
2022-10-12T12:56:04.553Z,30.93
2022-10-12T12:58:52.001Z,29.56
2022-10-12T13:01:45.256Z,28.24
2022-10-12T13:04:44.210Z,26.96
2022-10-12T13:07:45.471Z,25.83
2022-10-12T13:10:31.358Z,24.91
2022-10-12T13:13:20.476Z,24.13
2022-10-12T13:16:19.535Z,23.42
2022-10-12T13:19:16.639Z,22.71
2022-10-12T13:21:57.968Z,22.16
2022-10-12T13:24:42.660Z,21.64
2022-10-12T13:27:22.175Z,21.21
2022-10-12T13:30:01.964Z,20.91
2022-10-12T13:32:43.870Z,20.57
2022-10-12T13:35:37.570Z,20.25
2022-10-12T13:38:22.632Z,19.98
2022-10-12T13:41:03.716Z,19.73
2022-10-12T13:43:45.408Z,19.54
2022-10-12T13:46:41.796Z,19.36
2022-10-12T13:49:17.111Z,19.20
2022-10-12T13:51:53.936Z,19.10
2022-10-12T13:54:29.455Z,18.99
2022-10-12T13:59:48.091Z,18.78
2022-10-12T14:02:33.639Z,18.67
2022-10-12T14:05:18.392Z,18.58
2022-10-12T14:07:54.952Z,18.48
2022-10-12T14:10:33.183Z,18.40
2022-10-12T14:13:10.008Z,18.34
2022-10-12T14:15:51.406Z,18.30
2022-10-12T14:18:44.254Z,18.27
2022-10-12T14:21:24.235Z,18.17
2022-10-12T14:24:01.729Z,18.07
2022-10-12T14:26:40.281Z,17.99
2022-10-12T14:29:36.269Z,17.92
2022-10-12T14:32:39.596Z,17.84
2022-10-12T14:35:25.649Z,17.75
2022-10-12T14:37:59.644Z,17.66
2022-10-12T14:40:37.882Z,17.62
2022-10-12T14:43:24.431Z,17.61
2022-10-12T14:46:14.064Z,17.56
2022-10-12T14:48:48.211Z,17.53
2022-10-12T14:51:21.899Z,17.47
2022-10-12T14:54:02.447Z,17.39
2022-10-12T14:56:36.203Z,17.32
2022-10-12T14:59:09.942Z,17.24
2022-10-12T15:01:51.182Z,17.18
2022-10-12T15:04:28.146Z,17.10
2022-10-12T15:07:01.717Z,17.02
2022-10-12T15:09:34.961Z,17.06
2022-10-12T15:12:08.864Z,16.92
2022-10-12T15:14:57.838Z,16.84
2022-10-12T15:17:36.808Z,16.75
2022-10-12T15:20:11.493Z,16.68
2022-10-12T15:22:46.130Z,16.60
2022-10-12T15:25:29.574Z,16.55
2022-10-12T15:28:03.467Z,16.49
2022-10-12T15:31:11.795Z,16.44
2022-10-12T15:33:42.586Z,16.38
2022-10-12T15:36:16.524Z,16.36
2022-10-12T15:38:50.418Z,16.33
2022-10-12T15:41:27.256Z,16.29
2022-10-12T15:44:01.193Z,16.24
2022-10-12T15:46:34.743Z,16.19
2022-10-12T15:49:10.010Z,16.15
2022-10-12T15:51:49.589Z,16.08
2022-10-12T15:54:23.509Z,16.03
2022-10-12T15:56:57.445Z,16.00
2022-10-12T15:59:31.391Z,15.96
2022-10-12T16:02:05.532Z,15.94
2022-10-12T16:04:40.806Z,15.90
2022-10-12T16:07:16.169Z,15.86
2022-10-12T16:09:50.332Z,15.81
2022-10-12T16:12:27.793Z,15.76
2022-10-12T16:15:01.527Z,15.71
2022-10-12T16:17:41.056Z,15.66
2022-10-12T16:20:16.625Z,15.59
2022-10-12T16:22:51.062Z,15.53
2022-10-12T16:25:26.299Z,15.47
2022-10-12T16:28:00.086Z,15.43
2022-10-12T16:30:33.915Z,15.40
2022-10-12T16:33:07.574Z,15.37
2022-10-12T16:35:42.538Z,15.44
2022-10-12T16:38:20.138Z,15.33
2022-10-12T16:40:53.841Z,15.29
2022-10-12T16:43:27.648Z,15.38
2022-10-12T16:46:01.448Z,15.28
2022-10-12T16:48:35.658Z,15.24
2022-10-12T16:51:13.319Z,15.23
2022-10-12T16:53:46.921Z,15.22
2022-10-12T16:56:20.540Z,15.22
2022-10-12T16:58:53.862Z,15.34
2022-10-12T17:01:27.541Z,15.25
2022-10-12T17:04:02.335Z,15.35
2022-10-12T17:06:37.509Z,15.21
2022-10-12T17:09:11.353Z,15.17
2022-10-12T17:11:44.738Z,15.26
2022-10-12T17:14:18.485Z,15.14
2022-10-12T17:16:52.547Z,15.22
2022-10-12T17:19:28.796Z,15.09
2022-10-12T17:22:06.706Z,15.05
2022-10-12T17:24:42.533Z,15.01
2022-10-12T17:27:17.137Z,14.99
2022-10-12T17:29:50.999Z,14.98
2022-10-12T17:32:38.229Z,15.09
2022-10-12T17:35:14.472Z,14.97
2022-10-12T17:37:49.765Z,14.94
2022-10-12T17:40:23.492Z,14.91
2022-10-12T17:42:58.123Z,14.99
2022-10-12T17:45:31.905Z,14.88
2022-10-12T17:48:09.371Z,14.84
2022-10-12T17:50:44.581Z,14.79
2022-10-12T17:53:20.529Z,14.77
2022-10-12T17:55:58.813Z,14.76
2022-10-12T17:58:34.905Z,14.76
2022-10-12T18:01:14.412Z,14.75
2022-10-12T18:03:48.432Z,14.73
2022-10-12T18:06:23.024Z,14.71
2022-10-12T18:09:08.102Z,14.70
2022-10-12T18:11:41.828Z,14.68
2022-10-12T18:14:17.995Z,14.77
2022-10-12T18:16:52.348Z,14.65
2022-10-12T18:19:26.029Z,14.62
2022-10-12T18:22:05.037Z,14.60
2022-10-12T18:24:40.703Z,14.57
2022-10-12T18:27:14.289Z,14.53
2022-10-12T18:29:47.867Z,14.48
2022-10-12T18:32:21.581Z,14.41
2022-10-12T18:34:57.047Z,14.47
2022-10-12T18:37:30.614Z,14.31
2022-10-12T18:40:06.297Z,14.22
2022-10-12T18:42:40.032Z,14.14
2022-10-12T18:45:14.247Z,14.07
2022-10-12T18:47:47.788Z,14.12
2022-10-12T18:50:25.169Z,13.97
2022-10-12T18:52:58.879Z,13.93
2022-10-12T18:55:33.744Z,13.99
2022-10-12T18:58:09.503Z,13.81
2022-10-12T19:00:43.149Z,13.73
2022-10-12T19:03:16.341Z,13.76
2022-10-12T19:05:49.999Z,13.56
2022-10-12T19:08:23.299Z,13.57
2022-10-12T19:10:58.336Z,13.36
2022-10-12T19:13:32.035Z,13.24
2022-10-12T19:16:10.889Z,13.15
2022-10-12T19:18:45.083Z,13.06
2022-10-12T19:21:23.679Z,12.96
2022-10-12T19:23:57.291Z,12.84
2022-10-12T19:26:32.880Z,12.76
2022-10-12T19:29:07.337Z,12.69
2022-10-12T19:31:46.699Z,12.60
2022-10-12T19:34:24.178Z,12.53
2022-10-12T19:36:58.084Z,12.47
2022-10-12T19:39:36.430Z,12.46
2022-10-12T19:42:12.260Z,12.39
2022-10-12T19:44:46.009Z,12.32
2022-10-12T19:47:19.249Z,12.36
2022-10-12T19:49:53.631Z,12.21
2022-10-12T19:52:27.281Z,12.12
2022-10-12T19:55:00.974Z,12.03
2022-10-12T19:57:38.969Z,11.96
2022-10-12T20:00:14.013Z,11.88
2022-10-12T20:02:50.218Z,11.82
2022-10-12T20:05:26.093Z,11.78
2022-10-12T20:07:59.806Z,11.72
2022-10-12T20:10:38.788Z,11.68
2022-10-12T20:13:13.899Z,11.61
2022-10-12T20:15:48.217Z,11.56
2022-10-12T20:21:15.324Z,11.45
2022-10-12T20:23:51.386Z,11.39
2022-10-12T20:26:28.199Z,11.33
2022-10-12T20:29:05.689Z,11.26
2022-10-12T20:31:39.397Z,11.20
2022-10-12T20:34:21.684Z,11.25
2022-10-12T20:36:57.135Z,11.13
2022-10-12T20:39:30.676Z,11.08
2022-10-12T20:42:08.290Z,11.12
2022-10-12T20:44:43.774Z,10.96
2022-10-12T20:47:17.827Z,10.91
2022-10-12T20:49:52.081Z,10.86
2022-10-12T20:52:25.836Z,10.83
2022-10-12T20:55:05.405Z,10.92
2022-10-12T20:57:42.299Z,10.79
2022-10-12T21:00:20.446Z,10.72
2022-10-12T21:02:55.224Z,10.68
2022-10-12T21:05:31.438Z,10.63
2022-10-12T21:09:05.598Z,10.58
2022-10-12T21:11:16.190Z,10.54
2022-10-12T21:13:49.870Z,10.53
2022-10-12T21:16:28.056Z,10.48
2022-10-12T21:19:05.976Z,10.43
2022-10-12T21:21:39.549Z,10.39
2022-10-12T21:24:13.160Z,10.36
2022-10-12T21:26:46.912Z,10.32
2022-10-12T21:29:20.867Z,10.38
2022-10-12T21:31:57.055Z,10.22
2022-10-12T21:34:30.764Z,10.14
2022-10-12T21:37:04.703Z,10.10
2022-10-12T21:39:39.526Z,10.06
2022-10-12T21:42:16.266Z,10.04
2022-10-12T21:44:54.183Z,10.03
2022-10-12T21:47:33.793Z,10.02
2022-10-12T21:50:14.416Z,10.02
2022-10-12T21:52:49.973Z,10.01
2022-10-12T21:55:25.691Z,9.97
2022-10-12T21:57:59.306Z,9.96
2022-10-12T22:00:33.008Z,9.92
2022-10-12T22:03:10.216Z,9.91
2022-10-12T22:05:51.348Z,9.87
2022-10-12T22:08:27.840Z,9.86
2022-10-12T22:11:06.218Z,9.84
2022-10-12T22:13:40.467Z,9.79
2022-10-12T22:16:17.555Z,9.77
2022-10-12T22:18:52.623Z,9.75
2022-10-12T22:21:29.561Z,9.71
2022-10-12T22:24:03.287Z,9.71
2022-10-12T22:26:39.959Z,9.67
2022-10-12T22:29:15.689Z,9.61
2022-10-12T22:31:49.269Z,9.58
2022-10-12T22:34:24.302Z,9.51
2022-10-12T22:36:57.863Z,9.48
2022-10-12T22:39:31.492Z,9.46
2022-10-12T22:42:05.174Z,9.44
2022-10-12T22:44:38.897Z,9.42
2022-10-12T22:47:12.536Z,9.39
2022-10-12T22:49:48.065Z,9.36
2022-10-12T22:52:21.566Z,9.34
2022-10-12T22:54:56.729Z,9.33
2022-10-12T22:57:31.939Z,9.31
2022-10-12T23:00:06.358Z,9.31
2022-10-12T23:02:41.703Z,9.30
2022-10-12T23:05:16.926Z,9.26
2022-10-12T23:07:50.663Z,9.24
2022-10-12T23:10:24.673Z,9.21
2022-10-12T23:12:58.564Z,9.18
2022-10-12T23:15:31.874Z,9.27
2022-10-12T23:18:05.547Z,9.14
2022-10-12T23:20:42.420Z,9.11
2022-10-12T23:23:16.049Z,9.08
2022-10-12T23:25:50.890Z,9.06
2022-10-12T23:28:24.576Z,9.03
2022-10-12T23:30:58.301Z,9.00
2022-10-12T23:33:31.979Z,8.96
2022-10-12T23:36:09.205Z,8.93
2022-10-12T23:38:43.830Z,8.93
2022-10-12T23:41:17.421Z,8.91
2022-10-12T23:43:51.063Z,8.93
2022-10-12T23:46:24.657Z,8.91
2022-10-12T23:48:58.179Z,8.90
2022-10-12T23:51:36.004Z,8.89
2022-10-12T23:54:09.811Z,8.86
2022-10-12T23:56:43.065Z,8.96
2022-10-12T23:59:16.757Z,8.80
